createdAt,value
2018-12-27T00:01:13.703Z,7.91
2018-12-27T00:03:45.642Z,7.88
2018-12-27T00:06:15.860Z,7.85
2018-12-27T00:08:46.530Z,7.84
2018-12-27T00:11:17.168Z,7.84
2018-12-27T00:14:08.154Z,7.79
2018-12-27T00:16:38.484Z,7.80
2018-12-27T00:19:08.778Z,7.85
2018-12-27T00:21:51.254Z,7.83
2018-12-27T00:24:16.571Z,7.83
2018-12-27T00:26:46.916Z,7.78
2018-12-27T00:29:17.182Z,7.76
2018-12-27T00:31:48.185Z,7.78
2018-12-27T00:34:40.703Z,7.77
2018-12-27T00:37:11.197Z,7.77
2018-12-27T00:39:41.702Z,7.76
2018-12-27T00:42:12.461Z,7.73
2018-12-27T00:44:44.621Z,7.68
2018-12-27T00:47:15.463Z,7.65
2018-12-27T00:49:46.268Z,7.66
2018-12-27T00:52:28.823Z,7.64
2018-12-27T00:55:00.252Z,7.59
2018-12-27T00:57:31.096Z,7.52
2018-12-27T01:00:01.584Z,7.50
2018-12-27T01:02:32.197Z,7.50
2018-12-27T01:05:02.566Z,7.49
2018-12-27T01:07:33.070Z,7.45
2018-12-27T01:10:03.739Z,7.43
2018-12-27T01:12:34.483Z,7.46
2018-12-27T01:15:04.958Z,7.47
2018-12-27T01:17:35.373Z,7.53
2018-12-27T01:20:05.863Z,7.55
2018-12-27T01:22:36.446Z,7.56
2018-12-27T01:25:06.938Z,7.56
2018-12-27T01:27:38.096Z,7.53
2018-12-27T01:30:09.011Z,7.56
2018-12-27T01:32:39.461Z,7.52
2018-12-27T01:35:09.886Z,7.50
2018-12-27T01:37:40.477Z,7.49
2018-12-27T01:40:11.310Z,7.46
2018-12-27T01:42:41.785Z,7.48
2018-12-27T01:45:12.190Z,7.47
2018-12-27T01:47:42.598Z,7.43
2018-12-27T01:50:12.961Z,7.41
2018-12-27T01:52:44.107Z,7.41
2018-12-27T01:55:14.959Z,7.39
2018-12-27T01:57:47.049Z,7.38
2018-12-27T02:00:17.685Z,7.41
2018-12-27T02:02:48.183Z,7.39
2018-12-27T02:05:18.669Z,7.37
2018-12-27T02:07:49.139Z,7.37
2018-12-27T02:10:19.665Z,7.34
2018-12-27T02:12:50.140Z,7.30
2018-12-27T02:15:20.617Z,7.30
2018-12-27T02:17:51.060Z,7.28
2018-12-27T02:20:21.707Z,7.29
2018-12-27T02:22:52.261Z,7.29
2018-12-27T02:25:41.733Z,7.25
2018-12-27T02:28:12.537Z,7.20
2018-12-27T02:30:43.016Z,7.20
2018-12-27T02:33:13.672Z,7.19
2018-12-27T02:35:44.232Z,7.19
2018-12-27T02:38:14.639Z,7.18
2018-12-27T02:40:56.369Z,7.13
2018-12-27T02:43:38.443Z,7.13
2018-12-27T02:46:08.822Z,7.13
2018-12-27T02:48:39.710Z,7.14
2018-12-27T02:51:21.870Z,7.14
2018-12-27T02:53:52.640Z,7.11
2018-12-27T02:56:23.100Z,7.12
2018-12-27T02:58:53.506Z,7.14
2018-12-27T03:01:24.064Z,7.14
2018-12-27T03:03:54.553Z,7.13
2018-12-27T03:06:24.969Z,7.09
2018-12-27T03:08:55.875Z,7.07
2018-12-27T03:11:26.608Z,7.04
2018-12-27T03:13:57.682Z,7.03
2018-12-27T03:19:09.864Z,6.99
2018-12-27T03:21:40.381Z,7.02
2018-12-27T03:24:22.842Z,6.99
2018-12-27T03:27:05.252Z,6.97
2018-12-27T03:29:35.757Z,6.97
2018-12-27T03:32:06.207Z,6.97
2018-12-27T03:34:37.006Z,6.99
2018-12-27T03:37:07.485Z,6.97
2018-12-27T03:39:38.225Z,6.95
2018-12-27T03:42:08.875Z,6.94
2018-12-27T03:44:39.343Z,6.92
2018-12-27T03:47:09.828Z,6.94
2018-12-27T03:49:40.417Z,6.91
2018-12-27T03:52:10.960Z,6.93
2018-12-27T03:54:41.790Z,6.94
2018-12-27T03:57:12.235Z,6.98
2018-12-27T03:59:42.765Z,6.99
2018-12-27T04:02:13.579Z,6.98
2018-12-27T04:04:44.052Z,6.99
2018-12-27T04:07:14.555Z,7.00
2018-12-27T04:09:45.062Z,7.06
2018-12-27T04:12:15.534Z,7.04
2018-12-27T04:14:46.135Z,7.08
2018-12-27T04:17:16.447Z,7.09
2018-12-27T04:19:46.639Z,7.09
2018-12-27T04:22:16.894Z,7.10
2018-12-27T04:24:47.119Z,7.11
2018-12-27T04:27:36.432Z,7.13
2018-12-27T04:30:07.109Z,7.12
2018-12-27T04:35:59.933Z,7.10
2018-12-27T04:38:30.448Z,7.12
2018-12-27T04:41:01.060Z,7.12
2018-12-27T04:43:51.883Z,7.11
2018-12-27T04:46:22.088Z,7.13
2018-12-27T04:49:11.499Z,7.13
2018-12-27T04:51:55.466Z,7.17
2018-12-27T04:54:25.882Z,7.19
2018-12-27T04:56:56.140Z,7.21
2018-12-27T04:59:26.326Z,7.23
2018-12-27T05:01:56.637Z,7.20
2018-12-27T05:04:32.432Z,7.18
2018-12-27T05:07:14.502Z,7.19
2018-12-27T05:09:44.729Z,7.18
2018-12-27T05:12:14.946Z,7.14
2018-12-27T05:15:04.515Z,7.13
2018-12-27T05:17:34.783Z,7.15
2018-12-27T05:20:05.039Z,7.16
2018-12-27T05:22:54.438Z,7.16
2018-12-27T05:25:24.678Z,7.15
2018-12-27T05:27:55.345Z,7.15
2018-12-27T05:30:25.937Z,7.21
2018-12-27T05:32:58.179Z,7.20
2018-12-27T05:35:28.757Z,7.19
2018-12-27T05:37:59.236Z,7.22
2018-12-27T05:40:41.277Z,7.22
2018-12-27T05:43:11.545Z,7.22
2018-12-27T05:45:41.887Z,7.23
2018-12-27T05:48:12.247Z,7.22
2018-12-27T05:50:43.034Z,7.22
2018-12-27T05:53:13.281Z,7.23
2018-12-27T05:55:55.652Z,7.23
2018-12-27T05:58:26.055Z,7.21
2018-12-27T06:00:56.277Z,7.23
2018-12-27T06:03:26.700Z,7.22
2018-12-27T06:05:57.271Z,7.24
2018-12-27T06:08:27.484Z,7.23
2018-12-27T06:10:59.489Z,7.24
2018-12-27T06:13:30.082Z,7.29
2018-12-27T06:16:00.638Z,7.26
2018-12-27T06:18:30.875Z,7.28
2018-12-27T06:21:01.521Z,7.29
2018-12-27T06:23:31.820Z,7.27
2018-12-27T06:26:02.310Z,7.30
2018-12-27T06:28:34.271Z,7.27
2018-12-27T06:31:04.591Z,7.26
2018-12-27T06:33:35.195Z,7.23
2018-12-27T06:36:06.491Z,7.21
2018-12-27T06:38:37.042Z,7.22
2018-12-27T06:41:09.007Z,7.26
2018-12-27T06:43:39.237Z,7.29
2018-12-27T06:46:09.518Z,7.31
2018-12-27T06:48:39.928Z,7.31
2018-12-27T06:51:10.592Z,7.30
2018-12-27T06:53:41.089Z,7.29
2018-12-27T06:56:11.361Z,7.29
2018-12-27T06:58:41.760Z,7.27
2018-12-27T07:01:12.280Z,7.29
2018-12-27T07:03:42.501Z,7.30
2018-12-27T07:06:12.794Z,7.30
2018-12-27T07:08:42.960Z,7.31
2018-12-27T07:11:13.199Z,7.31
2018-12-27T07:13:43.453Z,7.31
2018-12-27T07:16:13.655Z,7.34
2018-12-27T07:18:43.865Z,7.35
2018-12-27T07:21:14.095Z,7.37
2018-12-27T07:23:45.966Z,7.34
2018-12-27T07:26:16.685Z,7.33
2018-12-27T07:28:46.954Z,7.35
2018-12-27T07:31:17.208Z,7.31
2018-12-27T07:33:47.535Z,7.33
2018-12-27T07:36:17.828Z,7.34
2018-12-27T07:44:11.984Z,7.32
2018-12-27T07:46:42.217Z,7.31
2018-12-27T07:52:03.418Z,7.28
2018-12-27T07:54:33.763Z,7.28
2018-12-27T07:57:03.971Z,7.27
2018-12-27T07:59:34.320Z,7.28
2018-12-27T08:02:04.520Z,7.28
2018-12-27T08:04:34.716Z,7.31
2018-12-27T08:07:24.105Z,7.35
2018-12-27T08:09:54.401Z,7.31
2018-12-27T08:12:26.239Z,7.32
2018-12-27T08:14:56.522Z,7.31
2018-12-27T08:17:26.925Z,7.33
2018-12-27T08:19:57.117Z,7.31
2018-12-27T08:22:27.454Z,7.33
2018-12-27T08:25:16.751Z,7.31
2018-12-27T08:27:47.046Z,7.32
2018-12-27T08:30:19.324Z,7.31
2018-12-27T08:33:01.218Z,7.31
2018-12-27T08:35:31.431Z,7.33
2018-12-27T08:38:02.032Z,7.33
2018-12-27T08:40:32.391Z,7.34
2018-12-27T08:43:02.609Z,7.32
2018-12-27T08:45:33.168Z,7.34
2018-12-27T08:48:03.515Z,7.36
2018-12-27T08:50:33.741Z,7.36
2018-12-27T08:53:04.104Z,7.37
2018-12-27T08:55:34.406Z,7.39
2018-12-27T09:00:45.397Z,7.38
2018-12-27T09:03:15.681Z,7.39
2018-12-27T09:05:46.059Z,7.40
2018-12-27T09:08:16.251Z,7.41
2018-12-27T09:10:46.779Z,7.44
2018-12-27T09:13:16.962Z,7.44
2018-12-27T09:15:48.858Z,7.43
2018-12-27T09:18:19.159Z,7.44
2018-12-27T09:20:49.596Z,7.44
2018-12-27T09:23:40.533Z,7.46
2018-12-27T09:26:10.736Z,7.47
2018-12-27T09:28:42.667Z,7.49
2018-12-27T09:31:12.895Z,7.46
2018-12-27T09:33:43.117Z,7.47
2018-12-27T09:36:13.329Z,7.52
2018-12-27T09:38:43.575Z,7.50
2018-12-27T09:41:13.961Z,7.51
2018-12-27T09:43:44.262Z,7.53
2018-12-27T09:46:16.186Z,7.53
2018-12-27T09:48:46.528Z,7.55
2018-12-27T09:51:16.825Z,7.52
2018-12-27T09:53:47.152Z,7.46
2018-12-27T09:56:17.478Z,7.44
2018-12-27T09:58:47.946Z,7.45
2018-12-27T10:01:18.641Z,7.47
2018-12-27T10:03:48.859Z,7.46
2018-12-27T10:06:19.135Z,7.44
2018-12-27T10:08:49.557Z,7.39
2018-12-27T10:11:20.021Z,7.42
2018-12-27T10:13:50.243Z,7.42
2018-12-27T10:16:20.694Z,7.41
2018-12-27T10:21:59.283Z,7.42
2018-12-27T10:24:31.125Z,7.43
2018-12-27T10:27:13.472Z,7.45
2018-12-27T10:29:43.797Z,7.44
2018-12-27T10:32:14.139Z,7.40
2018-12-27T10:34:44.570Z,7.42
2018-12-27T10:37:16.517Z,7.43
2018-12-27T10:39:46.863Z,7.44
2018-12-27T10:42:17.378Z,7.46
2018-12-27T10:44:47.690Z,7.51
2018-12-27T10:47:17.985Z,7.53
2018-12-27T10:49:48.391Z,7.56
2018-12-27T10:52:18.815Z,7.57
2018-12-27T10:54:49.304Z,7.57
2018-12-27T10:57:20.203Z,7.59
2018-12-27T10:59:50.855Z,7.59
2018-12-27T11:02:22.920Z,7.57
2018-12-27T11:04:53.781Z,7.56
2018-12-27T11:07:43.053Z,7.56
2018-12-27T11:10:13.349Z,7.56
2018-12-27T11:12:43.690Z,7.57
2018-12-27T11:15:33.424Z,7.62
2018-12-27T11:18:03.882Z,7.64
2018-12-27T11:20:34.109Z,7.63
2018-12-27T11:23:23.436Z,7.64
2018-12-27T11:25:54.139Z,7.65
2018-12-27T11:28:24.387Z,7.68
2018-12-27T11:30:54.924Z,7.67
2018-12-27T11:33:38.149Z,7.69
2018-12-27T11:36:08.563Z,7.70
2018-12-27T11:38:38.822Z,7.73
2018-12-27T11:41:09.133Z,7.75
2018-12-27T11:43:41.117Z,7.74
2018-12-27T11:46:11.360Z,7.77
2018-12-27T11:48:41.562Z,7.75
2018-12-27T11:51:11.990Z,7.77
2018-12-27T11:53:42.334Z,7.79
2018-12-27T11:56:14.202Z,7.79
2018-12-27T11:58:46.533Z,7.79
2018-12-27T12:01:16.763Z,7.79
2018-12-27T12:03:47.670Z,7.76
2018-12-27T12:06:19.685Z,7.75
2018-12-27T12:08:50.159Z,7.74
2018-12-27T12:11:20.409Z,7.72
2018-12-27T12:13:50.859Z,7.71
2018-12-27T12:16:22.882Z,7.69
2018-12-27T12:18:53.068Z,7.69
2018-12-27T12:21:24.338Z,7.70
2018-12-27T12:23:54.879Z,7.70
2018-12-27T12:26:25.140Z,7.75
2018-12-27T12:28:55.423Z,7.75
2018-12-27T12:31:25.768Z,7.74
2018-12-27T12:33:56.002Z,7.76
2018-12-27T12:36:26.364Z,7.76
2018-12-27T12:38:56.589Z,7.77
2018-12-27T12:41:26.807Z,7.76
2018-12-27T12:43:57.204Z,7.77
2018-12-27T12:46:27.402Z,7.77
2018-12-27T12:48:58.035Z,7.78
2018-12-27T12:51:47.450Z,7.78
2018-12-27T12:54:17.674Z,7.81
2018-12-27T12:56:47.947Z,7.84
2018-12-27T12:59:18.283Z,7.85
2018-12-27T13:01:48.682Z,7.84
2018-12-27T13:04:18.902Z,7.88
2018-12-27T13:07:08.256Z,7.91
2018-12-27T13:09:38.469Z,7.90
2018-12-27T13:12:08.860Z,7.90
2018-12-27T13:14:39.192Z,7.94
2018-12-27T13:17:09.480Z,7.96
2018-12-27T13:19:39.762Z,7.96
2018-12-27T13:22:10.062Z,7.96
2018-12-27T13:24:41.992Z,7.91
2018-12-27T13:27:12.242Z,7.96
2018-12-27T13:29:42.954Z,7.98
2018-12-27T13:32:13.285Z,7.99
2018-12-27T13:34:43.609Z,7.98
2018-12-27T13:37:13.855Z,7.96
2018-12-27T13:39:44.390Z,7.99
2018-12-27T13:42:14.643Z,7.99
2018-12-27T13:44:44.852Z,7.99
2018-12-27T13:47:15.279Z,7.99
2018-12-27T13:49:45.589Z,8.04
2018-12-27T13:52:27.705Z,8.04
2018-12-27T13:54:58.032Z,8.06
2018-12-27T13:57:28.697Z,8.11
2018-12-27T14:00:17.999Z,8.11
2018-12-27T14:02:48.751Z,8.14
2018-12-27T14:05:19.005Z,8.16
2018-12-27T14:07:49.272Z,8.17
2018-12-27T14:10:19.620Z,8.22
2018-12-27T14:12:49.917Z,8.25
2018-12-27T14:15:21.780Z,8.26
2018-12-27T14:17:52.388Z,8.31
2018-12-27T14:20:22.596Z,8.31
2018-12-27T14:23:12.051Z,8.31
2018-12-27T14:25:42.296Z,8.31
2018-12-27T14:28:12.827Z,8.34
2018-12-27T14:30:43.069Z,8.35
2018-12-27T14:33:13.394Z,8.35
2018-12-27T14:35:43.655Z,8.35
2018-12-27T14:38:15.504Z,8.39
2018-12-27T14:40:47.453Z,8.35
2018-12-27T14:43:17.663Z,8.36
2018-12-27T14:45:47.907Z,8.35
2018-12-27T14:48:18.208Z,8.31
2018-12-27T14:50:50.235Z,8.30
2018-12-27T14:53:22.526Z,8.30
2018-12-27T14:55:52.890Z,8.29
2018-12-27T14:58:23.116Z,8.29
2018-12-27T15:00:53.716Z,8.30
2018-12-27T15:03:24.131Z,8.28
2018-12-27T15:05:54.434Z,8.27
2018-12-27T15:08:24.836Z,8.27
2018-12-27T15:10:55.174Z,8.29
2018-12-27T15:13:25.607Z,8.29
2018-12-27T15:15:56.248Z,8.29
2018-12-27T15:18:26.517Z,8.30
2018-12-27T15:21:09.042Z,8.31
2018-12-27T15:23:39.320Z,8.34
2018-12-27T15:26:09.524Z,8.35
2018-12-27T15:28:40.010Z,8.34
2018-12-27T15:31:10.195Z,8.33
2018-12-27T15:33:40.527Z,8.31
2018-12-27T15:36:10.953Z,8.29
2018-12-27T15:38:41.170Z,8.30
2018-12-27T15:41:13.031Z,8.33
2018-12-27T15:43:43.927Z,8.33
2018-12-27T15:46:14.200Z,8.33
2018-12-27T15:48:44.674Z,8.28
2018-12-27T15:51:14.957Z,8.25
2018-12-27T15:53:45.174Z,8.29
2018-12-27T15:56:15.705Z,8.30
2018-12-27T15:58:46.046Z,8.31
2018-12-27T16:01:16.261Z,8.31
2018-12-27T16:03:46.602Z,8.32
2018-12-27T16:06:17.301Z,8.29
2018-12-27T16:08:47.630Z,8.28
2018-12-27T16:11:18.149Z,8.22
2018-12-27T16:16:30.491Z,8.16
2018-12-27T16:19:00.737Z,8.18
2018-12-27T16:21:31.030Z,8.19
2018-12-27T16:24:02.968Z,8.22
2018-12-27T16:26:33.521Z,8.24
2018-12-27T16:29:22.829Z,8.26
2018-12-27T16:31:53.102Z,8.28
2018-12-27T16:34:23.298Z,8.23
2018-12-27T16:36:53.613Z,8.22
2018-12-27T16:39:24.062Z,8.25
2018-12-27T16:41:54.395Z,8.22
2018-12-27T16:44:24.831Z,8.21
2018-12-27T16:46:55.201Z,8.16
2018-12-27T16:49:25.489Z,8.17
2018-12-27T16:51:56.130Z,8.17
2018-12-27T16:54:45.551Z,8.18
2018-12-27T16:57:19.681Z,8.17
2018-12-27T16:59:53.212Z,8.15
2018-12-27T17:02:23.656Z,8.15
2018-12-27T17:04:54.062Z,8.15
2018-12-27T17:07:24.320Z,8.16
2018-12-27T17:09:56.300Z,8.17
2018-12-27T17:12:26.677Z,8.15
2018-12-27T17:14:57.109Z,8.19
2018-12-27T17:17:27.546Z,8.16
2018-12-27T17:19:57.856Z,8.15
2018-12-27T17:22:28.676Z,8.17
2018-12-27T17:24:59.560Z,8.19
2018-12-27T17:27:48.876Z,8.19
2018-12-27T17:30:19.130Z,8.13
2018-12-27T17:32:49.430Z,8.14
2018-12-27T17:35:19.716Z,8.13
2018-12-27T17:37:50.073Z,8.13
2018-12-27T17:40:20.342Z,8.13
2018-12-27T17:45:33.173Z,8.18
2018-12-27T17:48:18.701Z,8.16
2018-12-27T17:50:41.564Z,8.15
2018-12-27T17:53:12.678Z,8.19
2018-12-27T17:55:43.134Z,8.19
2018-12-27T17:58:13.892Z,8.19
2018-12-27T18:00:44.256Z,8.21
2018-12-27T18:03:14.640Z,8.19
2018-12-27T18:06:04.339Z,8.19
2018-12-27T18:08:34.627Z,8.19
2018-12-27T18:11:04.889Z,8.18
2018-12-27T18:13:35.235Z,8.20
2018-12-27T18:18:57.285Z,8.16
2018-12-27T18:21:29.632Z,8.14
2018-12-27T18:24:00.416Z,8.15
2018-12-27T18:26:30.779Z,8.16
2018-12-27T18:29:01.573Z,8.13
2018-12-27T18:31:32.116Z,8.19
2018-12-27T18:36:50.398Z,8.24
2018-12-27T18:39:33.168Z,8.23
2018-12-27T18:42:03.457Z,8.18
2018-12-27T18:44:33.719Z,8.18
2018-12-27T18:47:04.141Z,8.18
2018-12-27T18:49:34.362Z,8.21
2018-12-27T18:52:04.586Z,8.22
2018-12-27T18:54:34.875Z,8.20
2018-12-27T18:57:05.539Z,8.21
2018-12-27T18:59:35.850Z,8.19
2018-12-27T19:02:06.469Z,8.18
2018-12-27T19:04:36.834Z,8.19
2018-12-27T19:07:08.817Z,8.20
2018-12-27T19:09:39.060Z,8.21
2018-12-27T19:12:47.482Z,8.24
2018-12-27T19:15:21.280Z,8.28
2018-12-27T19:18:13.202Z,8.25
2018-12-27T19:20:45.708Z,8.26
2018-12-27T19:23:35.125Z,8.24
2018-12-27T19:26:05.645Z,8.21
2018-12-27T19:28:56.459Z,8.22
2018-12-27T19:31:26.760Z,8.20
2018-12-27T19:33:57.044Z,8.20
2018-12-27T19:36:27.299Z,8.21
2018-12-27T19:38:57.532Z,8.17
2018-12-27T19:41:27.871Z,8.19
2018-12-27T19:43:58.479Z,8.21
2018-12-27T19:46:28.814Z,8.17
2018-12-27T19:48:59.045Z,8.17
2018-12-27T19:51:48.625Z,8.15
2018-12-27T19:54:18.891Z,8.21
2018-12-27T19:56:49.147Z,8.19
2018-12-27T19:59:19.595Z,8.19
2018-12-27T20:01:49.800Z,8.18
2018-12-27T20:04:27.842Z,8.21
2018-12-27T20:06:59.767Z,8.21
2018-12-27T20:09:45.300Z,8.15
2018-12-27T20:12:15.661Z,8.16
2018-12-27T20:15:05.014Z,8.18
2018-12-27T20:17:35.288Z,8.19
2018-12-27T20:20:06.380Z,8.16
2018-12-27T20:22:36.628Z,8.15
2018-12-27T20:25:07.416Z,8.13
2018-12-27T20:27:37.733Z,8.14
2018-12-27T20:30:08.679Z,8.15
2018-12-27T20:32:38.918Z,8.13
2018-12-27T20:35:22.817Z,8.15
2018-12-27T20:37:53.039Z,8.14
2018-12-27T20:40:23.259Z,8.13
2018-12-27T20:42:53.929Z,8.15
2018-12-27T20:45:24.189Z,8.20
2018-12-27T20:48:00.217Z,8.24
2018-12-27T20:50:30.829Z,8.25
2018-12-27T20:53:01.021Z,8.26
2018-12-27T20:55:31.520Z,8.27
2018-12-27T20:58:01.782Z,8.24
2018-12-27T21:00:32.573Z,8.26
2018-12-27T21:03:03.033Z,8.25
2018-12-27T21:05:33.450Z,8.27
2018-12-27T21:08:22.809Z,8.26
2018-12-27T21:10:53.229Z,8.27
2018-12-27T21:13:23.646Z,8.28
2018-12-27T21:15:53.956Z,8.26
2018-12-27T21:18:24.210Z,8.25
2018-12-27T21:20:54.436Z,8.24
2018-12-27T21:23:24.672Z,8.23
2018-12-27T21:25:54.983Z,8.20
2018-12-27T21:28:27.009Z,8.15
2018-12-27T21:30:57.225Z,8.14
2018-12-27T21:33:27.589Z,8.18
2018-12-27T21:35:57.918Z,8.19
2018-12-27T21:38:28.174Z,8.19
2018-12-27T21:40:58.575Z,8.20
2018-12-27T21:43:28.813Z,8.20
2018-12-27T21:45:59.266Z,8.14
2018-12-27T21:48:32.702Z,8.13
2018-12-27T21:51:03.029Z,8.13
2018-12-27T21:53:52.211Z,8.11
2018-12-27T21:56:22.461Z,8.10
2018-12-27T21:58:52.683Z,8.03
2018-12-27T22:01:22.918Z,8.04
2018-12-27T22:03:53.363Z,8.03
2018-12-27T22:06:23.645Z,8.02
2018-12-27T22:08:53.965Z,8.00
2018-12-27T22:11:24.282Z,8.00
2018-12-27T22:13:54.524Z,8.02
2018-12-27T22:16:24.761Z,8.01
2018-12-27T22:18:55.036Z,8.02
2018-12-27T22:21:25.300Z,7.99
2018-12-27T22:23:55.549Z,7.99
2018-12-27T22:26:25.874Z,7.96
2018-12-27T22:28:56.720Z,7.97
2018-12-27T22:31:26.915Z,7.96
2018-12-27T22:33:57.210Z,7.96
2018-12-27T22:36:27.519Z,7.97
2018-12-27T22:39:18.500Z,7.99
2018-12-27T22:41:48.735Z,7.99
2018-12-27T22:44:19.081Z,7.99
2018-12-27T22:46:49.702Z,7.97
2018-12-27T22:49:19.954Z,7.96
2018-12-27T22:51:51.789Z,7.95
2018-12-27T22:54:22.165Z,7.96
2018-12-27T22:56:52.438Z,7.97
2018-12-27T22:59:24.651Z,7.98
2018-12-27T23:01:54.899Z,7.97
2018-12-27T23:04:25.458Z,7.99
2018-12-27T23:06:55.682Z,7.98
2018-12-27T23:09:26.255Z,7.98
2018-12-27T23:11:58.305Z,8.00
2018-12-27T23:14:28.564Z,8.02
2018-12-27T23:17:00.458Z,8.01
2018-12-27T23:19:30.829Z,8.02
2018-12-27T23:22:01.175Z,8.00
2018-12-27T23:24:31.497Z,8.04
2018-12-27T23:27:02.141Z,8.06
2018-12-27T23:29:34.173Z,8.07
2018-12-27T23:32:04.407Z,8.05
2018-12-27T23:34:34.757Z,8.01
2018-12-27T23:37:05.176Z,8.01
2018-12-27T23:39:35.543Z,8.01
2018-12-27T23:42:05.769Z,8.01
2018-12-27T23:44:36.112Z,8.03
2018-12-27T23:47:18.471Z,8.05
2018-12-27T23:49:49.076Z,8.08
2018-12-27T23:52:19.605Z,8.10
2018-12-27T23:54:51.459Z,8.12
2018-12-27T23:57:22.135Z,8.17
2018-12-27T23:59:52.484Z,8.19
